This is the latest recevied weather packets stored in our database for station/object N2RDT. If no packets are shown the sender has not sent any weather packets the latest 10 day(s).
| Time | Temp. | Humidity | Pressure | Rain* | Wind** | Luminosity | Snow |
|---|---|---|---|---|---|---|---|
| 1777759943 | 12.78° C | 82% | 1011.9 hPa | 0 mm | - | 46 W/m² | - |
| 1777759639 | 12.78° C | 81% | 1011.7 hPa | 0 mm | - | 47 W/m² | - |
| 1777759335 | 12.78° C | 81% | 1011.7 hPa | 0 mm | - | 53 W/m² | - |
| 1777759032 | 12.78° C | 81% | 1011.7 hPa | 0 mm | - | 61 W/m² | - |
| 1777758729 | 12.78° C | 80% | 1011.6 hPa | 0 mm | - | 75 W/m² | - |
| 1777758427 | 12.78° C | 80% | 1011.9 hPa | 0 mm | - | 88 W/m² | - |
| 1777758124 | 13.33° C | 80% | 1011.9 hPa | 0 mm | - | 96 W/m² | - |
| 1777757821 | 13.33° C | 80% | 1011.8 hPa | 0 mm | - | 117 W/m² | - |
| 1777757518 | 13.33° C | 78% | 1011.9 hPa | 0 mm | - | 153 W/m² | - |
| 1777757216 | 13.33° C | 77% | 1011.8 hPa | 0 mm | - | 158 W/m² | - |
| 1777756915 | 13.33° C | 80% | 1012 hPa | 0 mm | - | 155 W/m² | - |
| 1777756610 | 13.33° C | 80% | 1011.8 hPa | 0 mm | - | 174 W/m² | - |
| 1777756307 | 13.33° C | 80% | 1011.9 hPa | 0 mm | - | 167 W/m² | - |
| 1777756004 | 13.33° C | 80% | 1011.8 hPa | 0 mm | - | 175 W/m² | - |
| 1777755701 | 13.33° C | 80% | 1011.8 hPa | 0 mm | - | 172 W/m² | - |
| 1777755398 | 13.33° C | 81% | 1011.9 hPa | 0 mm | - | 177 W/m² | - |
| 1777755095 | 12.78° C | 81% | 1012 hPa | 0 mm | - | 181 W/m² | - |
| 1777754792 | 13.33° C | 82% | 1012.2 hPa | 0 mm | - | 181 W/m² | - |
| 1777754489 | 13.33° C | 80% | 1012 hPa | 0 mm | - | 202 W/m² | - |
| 1777754186 | 13.33° C | 80% | 1012 hPa | 0 mm | - | 202 W/m² | - |
| 1777753884 | 13.33° C | 82% | 1012 hPa | 0 mm | - | 205 W/m² | - |
| 1777753579 | 12.78° C | 81% | 1011.9 hPa | 0 mm | - | 284 W/m² | - |
| 1777753277 | 13.33° C | 81% | 1012 hPa | 0 mm | - | 247 W/m² | - |
| 1777752973 | 12.78° C | 81% | 1011.9 hPa | 0 mm | - | 279 W/m² | - |
| 1777752670 | 12.78° C | 83% | 1011.8 hPa | 0 mm | - | 149 W/m² | - |
* Rain latest hour (hover to see other rain measurements)
** Current wind speed in m/s (hover to see current wind gust speed)